createdAt,value
2018-05-09T00:00:36.748Z,1016.24
2018-05-09T00:02:04.128Z,1016.21
2018-05-09T00:03:31.445Z,1016.20
2018-05-09T00:04:58.653Z,1016.20
2018-05-09T00:06:26.072Z,1016.19
2018-05-09T00:07:53.196Z,1016.20
2018-05-09T00:09:20.543Z,1016.21
2018-05-09T00:10:47.920Z,1016.23
2018-05-09T00:12:15.086Z,1016.22
2018-05-09T00:13:42.674Z,1016.21
2018-05-09T00:15:09.989Z,1016.19
2018-05-09T00:16:37.251Z,1016.20
2018-05-09T00:18:04.603Z,1016.21
2018-05-09T00:19:31.729Z,1016.20
2018-05-09T00:20:59.159Z,1016.20
2018-05-09T00:22:26.450Z,1016.20
2018-05-09T00:23:53.868Z,1016.17
2018-05-09T00:25:20.970Z,1016.18
2018-05-09T00:26:48.446Z,1016.18
2018-05-09T00:28:15.835Z,1016.19
2018-05-09T00:29:43.244Z,1016.19
2018-05-09T00:31:10.683Z,1016.20
2018-05-09T00:32:38.008Z,1016.16
2018-05-09T00:34:05.281Z,1016.17
2018-05-09T00:35:32.690Z,1016.16
2018-05-09T00:36:59.968Z,1016.16
2018-05-09T00:38:27.345Z,1016.19
2018-05-09T00:39:54.649Z,1016.16
2018-05-09T00:41:21.929Z,1016.12
2018-05-09T00:42:49.274Z,1016.13
2018-05-09T00:44:16.717Z,1016.09
2018-05-09T00:45:43.850Z,1016.07
2018-05-09T00:47:11.196Z,1016.06
2018-05-09T00:48:38.412Z,1016.05
2018-05-09T00:50:05.733Z,1016.05
2018-05-09T00:51:32.776Z,1016.04
2018-05-09T00:53:00.016Z,1016.03
2018-05-09T00:54:27.409Z,1016.04
2018-05-09T00:55:54.792Z,1016.02
2018-05-09T00:57:21.977Z,1016.04
2018-05-09T00:58:49.327Z,1016.02
2018-05-09T01:00:16.665Z,1016.02
2018-05-09T01:01:44.062Z,1016.01
2018-05-09T01:03:11.384Z,1015.99
2018-05-09T01:04:38.715Z,1015.98
2018-05-09T01:06:06.167Z,1015.97
2018-05-09T01:07:33.309Z,1015.95
2018-05-09T01:09:00.845Z,1015.95
2018-05-09T01:10:28.145Z,1015.93
2018-05-09T01:11:55.261Z,1015.95
2018-05-09T01:13:22.778Z,1015.96
2018-05-09T01:14:50.171Z,1015.99
2018-05-09T01:16:17.238Z,1015.99
2018-05-09T01:17:44.729Z,1016.00
2018-05-09T01:19:12.087Z,1016.01
2018-05-09T01:20:39.469Z,1016.01
2018-05-09T01:22:06.782Z,1015.99
2018-05-09T01:23:34.201Z,1015.99
2018-05-09T01:25:01.334Z,1015.99
2018-05-09T01:26:28.721Z,1015.98
2018-05-09T01:27:56.083Z,1015.99
2018-05-09T01:29:23.241Z,1015.96
2018-05-09T01:30:50.722Z,1015.95
2018-05-09T01:32:17.981Z,1015.96
2018-05-09T01:33:45.151Z,1015.97
2018-05-09T01:35:12.331Z,1015.96
2018-05-09T01:36:39.690Z,1015.94
2018-05-09T01:38:07.021Z,1015.94
2018-05-09T01:39:34.336Z,1015.91
2018-05-09T01:41:01.775Z,1015.90
2018-05-09T01:42:29.243Z,1015.89
2018-05-09T01:43:56.489Z,1015.88
2018-05-09T01:45:23.698Z,1015.89
2018-05-09T01:46:51.242Z,1015.90
2018-05-09T01:48:18.544Z,1015.88
2018-05-09T01:49:47.685Z,1015.88
2018-05-09T01:51:13.113Z,1015.85
2018-05-09T01:52:40.280Z,1015.84
2018-05-09T01:54:07.676Z,1015.85
2018-05-09T01:55:35.080Z,1015.85
2018-05-09T01:57:02.185Z,1015.88
2018-05-09T01:58:29.435Z,1015.89
2018-05-09T01:59:56.812Z,1015.89
2018-05-09T02:01:24.264Z,1015.87
2018-05-09T02:02:51.622Z,1015.87
2018-05-09T02:04:18.814Z,1015.84
2018-05-09T02:05:46.237Z,1015.84
2018-05-09T02:07:13.868Z,1015.87
2018-05-09T02:08:41.036Z,1015.90
2018-05-09T02:10:08.608Z,1015.89
2018-05-09T02:11:35.800Z,1015.89
2018-05-09T02:13:03.023Z,1015.90
2018-05-09T02:14:30.231Z,1015.88
2018-05-09T02:15:57.571Z,1015.89
2018-05-09T02:17:24.899Z,1015.88
2018-05-09T02:18:52.064Z,1015.88
2018-05-09T02:20:19.538Z,1015.84
2018-05-09T02:21:46.696Z,1015.84
2018-05-09T02:23:14.136Z,1015.81
2018-05-09T02:24:41.422Z,1015.80
2018-05-09T02:26:08.616Z,1015.78
2018-05-09T02:27:35.933Z,1015.80
2018-05-09T02:29:03.180Z,1015.81
2018-05-09T02:30:30.323Z,1015.80
2018-05-09T02:31:57.778Z,1015.79
2018-05-09T02:33:25.494Z,1015.78
2018-05-09T02:34:52.713Z,1015.79
2018-05-09T02:36:20.042Z,1015.79
2018-05-09T02:37:47.390Z,1015.82
2018-05-09T02:39:14.743Z,1015.82
2018-05-09T02:40:42.100Z,1015.83
2018-05-09T02:42:09.479Z,1015.83
2018-05-09T02:43:36.441Z,1015.83
2018-05-09T02:45:03.887Z,1015.83
2018-05-09T02:46:30.939Z,1015.83
2018-05-09T02:47:58.298Z,1015.83
2018-05-09T02:49:25.705Z,1015.83
2018-05-09T02:50:52.959Z,1015.83
2018-05-09T02:52:20.430Z,1015.83
2018-05-09T02:53:47.638Z,1015.84
2018-05-09T02:55:14.891Z,1015.85
2018-05-09T02:56:42.110Z,1015.85
2018-05-09T02:58:09.475Z,1015.84
2018-05-09T02:59:36.702Z,1015.87
2018-05-09T03:01:03.955Z,1015.84
2018-05-09T03:02:31.109Z,1015.84
2018-05-09T03:03:58.513Z,1015.83
2018-05-09T03:05:25.647Z,1015.80
2018-05-09T03:06:52.934Z,1015.78
2018-05-09T03:08:20.172Z,1015.78
2018-05-09T03:09:47.423Z,1015.78
2018-05-09T03:11:14.833Z,1015.78
2018-05-09T03:12:42.185Z,1015.80
2018-05-09T03:14:09.417Z,1015.79
2018-05-09T03:15:36.795Z,1015.80
2018-05-09T03:17:04.158Z,1015.79
2018-05-09T03:18:31.575Z,1015.80
2018-05-09T03:19:58.912Z,1015.83
2018-05-09T03:21:26.162Z,1015.81
2018-05-09T03:22:53.599Z,1015.80
2018-05-09T03:24:20.707Z,1015.81
2018-05-09T03:25:48.086Z,1015.81
2018-05-09T03:27:15.639Z,1015.81
2018-05-09T03:28:42.947Z,1015.79
2018-05-09T03:30:10.094Z,1015.80
2018-05-09T03:31:37.679Z,1015.80
2018-05-09T03:33:04.875Z,1015.80
2018-05-09T03:34:32.340Z,1015.80
2018-05-09T03:35:59.402Z,1015.80
2018-05-09T03:37:26.941Z,1015.79
2018-05-09T03:38:54.174Z,1015.80
2018-05-09T03:40:21.533Z,1015.81
2018-05-09T03:41:48.929Z,1015.81
2018-05-09T03:43:16.326Z,1015.80
2018-05-09T03:44:43.583Z,1015.80
2018-05-09T03:46:10.905Z,1015.78
2018-05-09T03:47:38.355Z,1015.77
2018-05-09T03:49:05.695Z,1015.76
2018-05-09T03:50:32.952Z,1015.78
2018-05-09T03:52:00.228Z,1015.78
2018-05-09T03:53:27.494Z,1015.77
2018-05-09T03:54:54.781Z,1015.74
2018-05-09T03:56:22.180Z,1015.71
2018-05-09T03:57:49.572Z,1015.73
2018-05-09T03:59:16.818Z,1015.73
2018-05-09T04:00:44.129Z,1015.69
2018-05-09T04:02:11.116Z,1015.72
2018-05-09T04:03:38.510Z,1015.77
2018-05-09T04:05:05.735Z,1015.76
2018-05-09T04:06:33.040Z,1015.78
2018-05-09T04:08:00.327Z,1015.77
2018-05-09T04:09:27.632Z,1015.77
2018-05-09T04:10:54.710Z,1015.79
2018-05-09T04:12:22.199Z,1015.79
2018-05-09T04:13:49.653Z,1015.79
2018-05-09T04:15:16.997Z,1015.79
2018-05-09T04:16:44.430Z,1015.80
2018-05-09T04:18:11.497Z,1015.80
2018-05-09T04:19:38.972Z,1015.79
2018-05-09T04:21:06.309Z,1015.79
2018-05-09T04:22:33.763Z,1015.78
2018-05-09T04:24:00.919Z,1015.77
2018-05-09T04:25:28.015Z,1015.78
2018-05-09T04:26:54.965Z,1015.78
2018-05-09T04:28:22.163Z,1015.76
2018-05-09T04:29:49.533Z,1015.78
2018-05-09T04:31:16.718Z,1015.77
2018-05-09T04:32:43.973Z,1015.78
2018-05-09T04:34:11.273Z,1015.76
2018-05-09T04:35:38.580Z,1015.78
2018-05-09T04:37:05.860Z,1015.78
2018-05-09T04:38:33.251Z,1015.74
2018-05-09T04:40:00.563Z,1015.71
2018-05-09T04:41:27.667Z,1015.68
2018-05-09T04:42:54.945Z,1015.66
2018-05-09T04:44:22.272Z,1015.64
2018-05-09T04:45:49.671Z,1015.62
2018-05-09T04:47:16.844Z,1015.61
2018-05-09T04:48:44.237Z,1015.62
2018-05-09T04:50:11.527Z,1015.64
2018-05-09T04:51:39.048Z,1015.64
2018-05-09T04:53:06.383Z,1015.66
2018-05-09T04:54:33.623Z,1015.67
2018-05-09T04:56:01.034Z,1015.67
2018-05-09T04:57:28.229Z,1015.69
2018-05-09T04:58:55.366Z,1015.68
2018-05-09T05:00:22.824Z,1015.71
2018-05-09T05:01:50.164Z,1015.70
2018-05-09T05:03:17.681Z,1015.68
2018-05-09T05:04:45.062Z,1015.68
2018-05-09T05:06:12.495Z,1015.64
2018-05-09T05:07:39.814Z,1015.63
2018-05-09T05:09:06.923Z,1015.65
2018-05-09T05:10:34.287Z,1015.65
2018-05-09T05:12:01.715Z,1015.65
2018-05-09T05:13:28.988Z,1015.67
2018-05-09T05:14:56.258Z,1015.63
2018-05-09T05:16:23.790Z,1015.60
2018-05-09T05:17:51.155Z,1015.61
2018-05-09T05:19:18.567Z,1015.60
2018-05-09T05:20:45.983Z,1015.63
2018-05-09T05:22:13.302Z,1015.66
2018-05-09T05:23:40.904Z,1015.64
2018-05-09T05:25:08.155Z,1015.62
2018-05-09T05:26:35.752Z,1015.60
2018-05-09T05:28:03.094Z,1015.59
2018-05-09T05:29:30.596Z,1015.58
2018-05-09T05:30:58.076Z,1015.54
2018-05-09T05:32:25.328Z,1015.51
2018-05-09T05:33:52.602Z,1015.49
2018-05-09T05:35:19.960Z,1015.50
2018-05-09T05:36:47.418Z,1015.46
2018-05-09T05:38:14.715Z,1015.43
2018-05-09T05:39:42.197Z,1015.41
2018-05-09T05:41:09.672Z,1015.41
2018-05-09T05:42:37.052Z,1015.44
2018-05-09T05:44:04.450Z,1015.44
2018-05-09T05:45:31.991Z,1015.45
2018-05-09T05:46:59.047Z,1015.45
2018-05-09T05:48:26.633Z,1015.45
2018-05-09T05:49:54.132Z,1015.47
2018-05-09T05:51:21.574Z,1015.46
2018-05-09T05:52:49.054Z,1015.45
2018-05-09T05:54:16.350Z,1015.49
2018-05-09T05:55:43.831Z,1015.46
2018-05-09T05:57:11.313Z,1015.48
2018-05-09T05:58:38.150Z,1015.48
2018-05-09T06:00:05.395Z,1015.48
2018-05-09T06:01:33.044Z,1015.52
2018-05-09T06:03:00.706Z,1015.51
2018-05-09T06:04:28.032Z,1015.50
2018-05-09T06:05:55.345Z,1015.50
2018-05-09T06:07:22.734Z,1015.48
2018-05-09T06:08:50.291Z,1015.49
2018-05-09T06:10:17.823Z,1015.45
2018-05-09T06:11:45.370Z,1015.45
2018-05-09T06:13:12.652Z,1015.41
2018-05-09T06:14:40.166Z,1015.40
2018-05-09T06:16:07.557Z,1015.40
2018-05-09T06:17:35.094Z,1015.40
2018-05-09T06:19:02.615Z,1015.39
2018-05-09T06:20:30.125Z,1015.37
2018-05-09T06:21:57.506Z,1015.36
2018-05-09T06:23:24.831Z,1015.35
2018-05-09T06:24:52.102Z,1015.35
2018-05-09T06:26:19.443Z,1015.35
2018-05-09T06:27:46.977Z,1015.31
2018-05-09T06:29:14.476Z,1015.31
2018-05-09T06:30:41.893Z,1015.31
2018-05-09T06:32:09.491Z,1015.30
2018-05-09T06:33:36.775Z,1015.32
2018-05-09T06:35:04.373Z,1015.34
2018-05-09T06:36:31.698Z,1015.32
2018-05-09T06:37:59.255Z,1015.33
2018-05-09T06:39:26.689Z,1015.34
2018-05-09T06:40:54.218Z,1015.33
2018-05-09T06:42:21.809Z,1015.32
2018-05-09T06:43:49.017Z,1015.34
2018-05-09T06:45:16.450Z,1015.32
2018-05-09T06:46:43.784Z,1015.34
2018-05-09T06:48:11.350Z,1015.33
2018-05-09T06:49:38.757Z,1015.33
2018-05-09T06:51:06.375Z,1015.37
2018-05-09T06:52:33.965Z,1015.37
2018-05-09T06:54:01.073Z,1015.35
2018-05-09T06:55:28.644Z,1015.35
2018-05-09T06:56:55.903Z,1015.36
2018-05-09T06:58:23.458Z,1015.38
2018-05-09T06:59:51.026Z,1015.38
2018-05-09T07:01:18.421Z,1015.36
2018-05-09T07:02:45.833Z,1015.37
2018-05-09T07:04:13.066Z,1015.36
2018-05-09T07:05:40.613Z,1015.36
2018-05-09T07:07:08.127Z,1015.39
2018-05-09T07:08:35.719Z,1015.38
2018-05-09T07:10:03.111Z,1015.37
2018-05-09T07:11:30.575Z,1015.38
2018-05-09T07:12:58.144Z,1015.38
2018-05-09T07:14:25.390Z,1015.38
2018-05-09T07:15:52.809Z,1015.37
2018-05-09T07:17:20.503Z,1015.34
2018-05-09T07:18:47.825Z,1015.36
2018-05-09T07:20:14.958Z,1015.36
2018-05-09T07:21:42.699Z,1015.39
2018-05-09T07:23:10.206Z,1015.39
2018-05-09T07:24:37.527Z,1015.39
2018-05-09T07:26:04.974Z,1015.38
2018-05-09T07:27:32.505Z,1015.33
2018-05-09T07:28:59.932Z,1015.30
2018-05-09T07:30:27.380Z,1015.29
2018-05-09T07:31:54.774Z,1015.30
2018-05-09T07:33:22.008Z,1015.29
2018-05-09T07:34:49.390Z,1015.28
2018-05-09T07:36:16.330Z,1015.25
2018-05-09T07:37:43.943Z,1015.27
2018-05-09T07:39:11.399Z,1015.28
2018-05-09T07:40:38.825Z,1015.28
2018-05-09T07:42:06.351Z,1015.28
2018-05-09T07:43:33.851Z,1015.22
2018-05-09T07:45:00.903Z,1015.19
2018-05-09T07:46:28.397Z,1015.18
2018-05-09T07:47:55.940Z,1015.19
2018-05-09T07:49:23.247Z,1015.23
2018-05-09T07:50:50.742Z,1015.24
2018-05-09T07:52:18.329Z,1015.24
2018-05-09T07:53:45.891Z,1015.24
2018-05-09T07:55:13.109Z,1015.25
2018-05-09T07:56:40.737Z,1015.26
2018-05-09T07:58:08.476Z,1015.26
2018-05-09T07:59:35.857Z,1015.28
2018-05-09T08:01:03.416Z,1015.29
2018-05-09T08:02:30.648Z,1015.28
2018-05-09T08:03:58.225Z,1015.29
2018-05-09T08:05:25.085Z,1015.25
2018-05-09T08:06:52.381Z,1015.25
2018-05-09T08:08:20.024Z,1015.27
2018-05-09T08:09:47.118Z,1015.23
2018-05-09T08:11:14.772Z,1015.26
2018-05-09T08:12:42.270Z,1015.26
2018-05-09T08:14:09.902Z,1015.26
2018-05-09T08:15:37.367Z,1015.27
2018-05-09T08:17:04.739Z,1015.24
2018-05-09T08:18:32.096Z,1015.22
2018-05-09T08:19:59.506Z,1015.22
2018-05-09T08:21:27.153Z,1015.21
2018-05-09T08:22:54.720Z,1015.21
2018-05-09T08:24:22.290Z,1015.23
2018-05-09T08:25:49.690Z,1015.22
2018-05-09T08:27:17.466Z,1015.23
2018-05-09T08:28:45.101Z,1015.21
2018-05-09T08:30:12.424Z,1015.23
2018-05-09T08:31:39.761Z,1015.22
2018-05-09T08:33:07.068Z,1015.23
2018-05-09T08:34:34.647Z,1015.22
2018-05-09T08:36:01.872Z,1015.20
2018-05-09T08:37:29.383Z,1015.20
2018-05-09T08:38:56.955Z,1015.21
2018-05-09T08:40:24.533Z,1015.21
2018-05-09T08:41:52.151Z,1015.15
2018-05-09T08:43:19.787Z,1015.14
2018-05-09T08:44:47.282Z,1015.13
2018-05-09T08:46:14.697Z,1015.13
2018-05-09T08:47:42.322Z,1015.10
2018-05-09T08:49:09.529Z,1015.14
2018-05-09T08:50:36.985Z,1015.11
2018-05-09T08:52:04.358Z,1015.10
2018-05-09T08:53:31.633Z,1015.08
2018-05-09T08:54:59.069Z,1015.09
2018-05-09T08:56:26.648Z,1015.03
2018-05-09T08:57:54.116Z,1015.03
2018-05-09T08:59:21.738Z,1015.03
2018-05-09T09:00:49.408Z,1014.99
2018-05-09T09:02:16.819Z,1014.95
2018-05-09T09:03:44.216Z,1014.94
2018-05-09T09:05:11.822Z,1014.94
2018-05-09T09:06:47.177Z,1014.92
2018-05-09T09:08:06.631Z,1014.88
2018-05-09T09:09:34.306Z,1014.88
2018-05-09T09:11:01.719Z,1014.89
2018-05-09T09:12:29.273Z,1014.93
2018-05-09T09:13:56.602Z,1014.91
2018-05-09T09:15:24.161Z,1014.93
2018-05-09T09:16:51.718Z,1014.94
2018-05-09T09:18:19.063Z,1014.95
2018-05-09T09:19:46.783Z,1014.96
2018-05-09T09:21:14.412Z,1014.93
2018-05-09T09:22:41.896Z,1014.97
2018-05-09T09:24:09.501Z,1014.97
2018-05-09T09:25:36.101Z,1014.94
2018-05-09T09:27:03.710Z,1014.93
2018-05-09T09:28:30.851Z,1014.95
2018-05-09T09:29:58.232Z,1014.90
2018-05-09T09:31:25.667Z,1014.90
2018-05-09T09:32:53.036Z,1014.90
2018-05-09T09:34:20.786Z,1014.88
2018-05-09T09:35:48.414Z,1014.86
2018-05-09T09:37:15.907Z,1014.86
2018-05-09T09:38:43.520Z,1014.82
2018-05-09T09:40:11.276Z,1014.85
2018-05-09T09:41:38.580Z,1014.78
2018-05-09T09:43:06.141Z,1014.76
2018-05-09T09:44:33.773Z,1014.76
2018-05-09T09:46:01.452Z,1014.77
2018-05-09T09:47:28.918Z,1014.77
2018-05-09T09:48:56.177Z,1014.75
2018-05-09T09:50:23.693Z,1014.76
2018-05-09T09:51:51.289Z,1014.74
2018-05-09T09:53:18.786Z,1014.74
2018-05-09T09:54:46.466Z,1014.73
2018-05-09T09:56:14.071Z,1014.74
2018-05-09T09:57:41.492Z,1014.69
2018-05-09T09:59:09.131Z,1014.67
2018-05-09T10:00:36.097Z,1014.71
2018-05-09T10:02:03.566Z,1014.70
2018-05-09T10:03:31.193Z,1014.69
2018-05-09T10:04:58.746Z,1014.67
2018-05-09T10:06:26.121Z,1014.65
2018-05-09T10:07:53.663Z,1014.63
2018-05-09T10:09:20.928Z,1014.65
2018-05-09T10:10:48.576Z,1014.65
2018-05-09T10:12:15.966Z,1014.63
2018-05-09T10:13:43.770Z,1014.61
2018-05-09T10:15:10.923Z,1014.58
2018-05-09T10:16:38.553Z,1014.57
2018-05-09T10:18:05.802Z,1014.56
2018-05-09T10:19:33.515Z,1014.55
2018-05-09T10:21:00.967Z,1014.54
2018-05-09T10:22:28.536Z,1014.55
2018-05-09T10:23:55.927Z,1014.52
2018-05-09T10:25:23.562Z,1014.50
2018-05-09T10:26:51.216Z,1014.47
2018-05-09T10:28:18.893Z,1014.41
2018-05-09T10:29:46.380Z,1014.39
2018-05-09T10:31:13.948Z,1014.40
2018-05-09T10:32:40.911Z,1014.36
2018-05-09T10:34:08.585Z,1014.36
2018-05-09T10:35:36.080Z,1014.32
2018-05-09T10:37:03.874Z,1014.32
2018-05-09T10:38:31.178Z,1014.32
2018-05-09T10:39:58.453Z,1014.34
2018-05-09T10:41:25.943Z,1014.38
2018-05-09T10:42:53.663Z,1014.37
2018-05-09T10:44:21.232Z,1014.38
2018-05-09T10:45:48.638Z,1014.39
2018-05-09T10:47:16.396Z,1014.37
2018-05-09T10:48:43.592Z,1014.34
2018-05-09T10:50:11.058Z,1014.35
2018-05-09T10:51:38.331Z,1014.29
2018-05-09T10:53:05.822Z,1014.35
2018-05-09T10:54:33.462Z,1014.31
2018-05-09T10:56:00.476Z,1014.29
2018-05-09T10:57:28.173Z,1014.25
2018-05-09T10:58:55.258Z,1014.24
2018-05-09T11:00:22.947Z,1014.24
2018-05-09T11:01:50.524Z,1014.25
2018-05-09T11:03:17.545Z,1014.24
2018-05-09T11:04:45.155Z,1014.22
2018-05-09T11:06:12.859Z,1014.22
2018-05-09T11:07:40.324Z,1014.23
2018-05-09T11:09:07.764Z,1014.22
2018-05-09T11:10:35.072Z,1014.21
2018-05-09T11:12:02.545Z,1014.20
2018-05-09T11:13:29.921Z,1014.23
2018-05-09T11:14:57.550Z,1014.21
2018-05-09T11:16:25.111Z,1014.18
2018-05-09T11:17:52.693Z,1014.21
2018-05-09T11:19:20.505Z,1014.22
2018-05-09T11:20:48.046Z,1014.17
2018-05-09T11:22:15.669Z,1014.19
2018-05-09T11:23:42.999Z,1014.16
2018-05-09T11:25:10.342Z,1014.16
2018-05-09T11:26:37.904Z,1014.13
2018-05-09T11:28:05.711Z,1014.03
2018-05-09T11:29:33.260Z,1014.07
2018-05-09T11:31:00.782Z,1014.12
2018-05-09T11:32:28.249Z,1014.06
2018-05-09T11:33:55.574Z,1014.04
2018-05-09T11:35:23.031Z,1014.02
2018-05-09T11:36:50.140Z,1014.00
2018-05-09T11:38:17.518Z,1013.98
2018-05-09T11:39:45.172Z,1013.97
2018-05-09T11:41:12.676Z,1013.97
2018-05-09T11:42:40.287Z,1013.92
2018-05-09T11:44:07.881Z,1013.89
2018-05-09T11:45:35.515Z,1013.85
2018-05-09T11:47:02.723Z,1013.84
2018-05-09T11:48:30.255Z,1013.82
2018-05-09T11:49:57.802Z,1013.76
2018-05-09T11:51:25.314Z,1013.78
2018-05-09T11:52:52.728Z,1013.78
2018-05-09T11:54:20.405Z,1013.80
2018-05-09T11:55:47.313Z,1013.77
2018-05-09T11:57:14.503Z,1013.75
2018-05-09T11:58:41.686Z,1013.76
2018-05-09T12:00:09.472Z,1013.68
2018-05-09T12:01:37.030Z,1013.71
2018-05-09T12:03:04.457Z,1013.67
2018-05-09T12:04:32.069Z,1013.68
2018-05-09T12:05:59.573Z,1013.69
2018-05-09T12:07:27.126Z,1013.66
2018-05-09T12:08:54.817Z,1013.65
2018-05-09T12:10:22.408Z,1013.61
2018-05-09T12:11:49.955Z,1013.61
2018-05-09T12:13:17.586Z,1013.55
2018-05-09T12:14:45.061Z,1013.56
2018-05-09T12:16:12.410Z,1013.63
2018-05-09T12:17:40.040Z,1013.57
2018-05-09T12:19:07.516Z,1013.56
2018-05-09T12:20:35.266Z,1013.48
2018-05-09T12:22:02.648Z,1013.44
2018-05-09T12:23:30.309Z,1013.49
2018-05-09T12:24:57.769Z,1013.39
2018-05-09T12:26:25.442Z,1013.37
2018-05-09T12:27:52.945Z,1013.39
2018-05-09T12:29:20.574Z,1013.44
2018-05-09T12:30:48.240Z,1013.39
2018-05-09T12:32:15.844Z,1013.40
2018-05-09T12:33:43.527Z,1013.32
2018-05-09T12:35:11.252Z,1013.39
2018-05-09T12:36:38.884Z,1013.36
2018-05-09T12:38:06.450Z,1013.36
2018-05-09T12:39:34.030Z,1013.38
2018-05-09T12:41:01.357Z,1013.35
2018-05-09T12:42:28.907Z,1013.33
2018-05-09T12:43:56.569Z,1013.37
2018-05-09T12:45:23.977Z,1013.36
2018-05-09T12:46:51.711Z,1013.36
2018-05-09T12:48:19.281Z,1013.33
2018-05-09T12:49:47.060Z,1013.33
2018-05-09T12:51:14.788Z,1013.28
2018-05-09T12:52:42.448Z,1013.25
2018-05-09T12:54:09.934Z,1013.30
2018-05-09T12:55:37.634Z,1013.25
2018-05-09T12:57:05.203Z,1013.19
2018-05-09T12:58:32.790Z,1013.17
2018-05-09T13:00:00.427Z,1013.17
2018-05-09T13:01:27.889Z,1013.19
2018-05-09T13:02:55.260Z,1013.12
2018-05-09T13:04:22.976Z,1013.06
2018-05-09T13:05:50.522Z,1013.01
2018-05-09T13:07:18.178Z,1013.04
2018-05-09T13:08:45.746Z,1012.99
2018-05-09T13:10:13.021Z,1012.98
2018-05-09T13:11:40.560Z,1012.98
2018-05-09T13:13:08.310Z,1012.99
2018-05-09T13:14:35.649Z,1012.96
2018-05-09T13:16:03.221Z,1012.97
2018-05-09T13:17:30.792Z,1012.96
2018-05-09T13:18:58.307Z,1012.88
2018-05-09T13:20:25.679Z,1012.88
2018-05-09T13:21:53.457Z,1012.88
2018-05-09T13:23:20.213Z,1012.87
2018-05-09T13:24:47.744Z,1012.88
2018-05-09T13:26:14.725Z,1012.86
2018-05-09T13:27:42.387Z,1012.90
2018-05-09T13:29:09.866Z,1012.87
2018-05-09T13:30:36.961Z,1012.88
2018-05-09T13:32:04.538Z,1012.88
2018-05-09T13:33:32.100Z,1012.86
2018-05-09T13:34:59.504Z,1012.89
2018-05-09T13:36:26.918Z,1012.88
2018-05-09T13:37:54.655Z,1012.86
2018-05-09T13:39:22.361Z,1012.88
2018-05-09T13:40:49.974Z,1012.84
2018-05-09T13:42:17.067Z,1012.86
2018-05-09T13:43:44.641Z,1012.79
2018-05-09T13:45:11.656Z,1012.79
2018-05-09T13:46:39.336Z,1012.77
2018-05-09T13:48:06.750Z,1012.77
2018-05-09T13:49:34.432Z,1012.72
2018-05-09T13:51:01.907Z,1012.72
2018-05-09T13:52:29.227Z,1012.67
2018-05-09T13:53:56.762Z,1012.64
2018-05-09T13:55:24.206Z,1012.63
2018-05-09T13:56:51.647Z,1012.67
2018-05-09T13:58:19.299Z,1012.62
2018-05-09T13:59:47.020Z,1012.61
2018-05-09T14:01:14.676Z,1012.58
2018-05-09T14:02:42.195Z,1012.57
2018-05-09T14:04:09.947Z,1012.59
2018-05-09T14:05:37.426Z,1012.52
2018-05-09T14:07:05.196Z,1012.51
2018-05-09T14:08:32.631Z,1012.50
2018-05-09T14:09:59.921Z,1012.48
2018-05-09T14:11:27.372Z,1012.48
2018-05-09T14:12:54.890Z,1012.49
2018-05-09T14:14:22.415Z,1012.51
2018-05-09T14:15:50.128Z,1012.51
2018-05-09T14:17:17.600Z,1012.48
2018-05-09T14:18:44.984Z,1012.44
2018-05-09T14:20:12.589Z,1012.42
2018-05-09T14:21:39.790Z,1012.43
2018-05-09T14:23:07.156Z,1012.38
2018-05-09T14:24:34.772Z,1012.45
2018-05-09T14:26:02.278Z,1012.41
2018-05-09T14:27:29.863Z,1012.40
2018-05-09T14:28:57.236Z,1012.42
2018-05-09T14:30:24.866Z,1012.41
2018-05-09T14:31:52.176Z,1012.41
2018-05-09T14:33:19.887Z,1012.40
2018-05-09T14:34:47.515Z,1012.43
2018-05-09T14:36:14.986Z,1012.39
2018-05-09T14:37:42.382Z,1012.41
2018-05-09T14:39:10.084Z,1012.38
2018-05-09T14:40:37.738Z,1012.39
2018-05-09T14:42:05.265Z,1012.37
2018-05-09T14:43:32.906Z,1012.30
2018-05-09T14:45:00.257Z,1012.28
2018-05-09T14:46:27.724Z,1012.25
2018-05-09T14:47:55.265Z,1012.28
2018-05-09T14:49:22.883Z,1012.29
2018-05-09T14:50:50.656Z,1012.25
2018-05-09T14:52:18.242Z,1012.28
2018-05-09T14:53:45.657Z,1012.27
2018-05-09T14:55:13.160Z,1012.30
2018-05-09T14:56:40.703Z,1012.30
2018-05-09T14:58:08.297Z,1012.31
2018-05-09T14:59:35.994Z,1012.28
2018-05-09T15:01:03.602Z,1012.29
2018-05-09T15:02:31.181Z,1012.28
2018-05-09T15:03:58.536Z,1012.27
2018-05-09T15:05:26.065Z,1012.25
2018-05-09T15:06:53.871Z,1012.25
2018-05-09T15:08:21.418Z,1012.20
2018-05-09T15:09:48.930Z,1012.18
2018-05-09T15:11:16.600Z,1012.13
2018-05-09T15:12:44.290Z,1012.13
2018-05-09T15:14:11.904Z,1012.11
2018-05-09T15:15:39.525Z,1012.13
2018-05-09T15:17:07.211Z,1012.09
2018-05-09T15:18:34.759Z,1012.11
2018-05-09T15:20:02.330Z,1012.12
2018-05-09T15:21:29.843Z,1012.09
2018-05-09T15:22:57.434Z,1012.11
2018-05-09T15:24:25.096Z,1012.10
2018-05-09T15:25:52.481Z,1012.06
2018-05-09T15:27:20.297Z,1012.06
2018-05-09T15:28:47.835Z,1012.03
2018-05-09T15:30:15.303Z,1012.02
2018-05-09T15:31:42.952Z,1012.03
2018-05-09T15:33:10.608Z,1012.01
2018-05-09T15:34:38.242Z,1012.00
2018-05-09T15:36:05.778Z,1011.97
2018-05-09T15:37:33.448Z,1011.97
2018-05-09T15:39:01.027Z,1011.94
2018-05-09T15:40:28.379Z,1011.95
2018-05-09T15:41:55.823Z,1011.93
2018-05-09T15:43:23.392Z,1011.92
2018-05-09T15:44:50.960Z,1011.89
2018-05-09T15:46:18.443Z,1011.92
2018-05-09T15:47:46.220Z,1011.91
2018-05-09T15:49:13.751Z,1011.90
2018-05-09T15:50:41.413Z,1011.88
2018-05-09T15:52:08.877Z,1011.89
2018-05-09T15:53:36.382Z,1011.90
2018-05-09T15:55:04.070Z,1011.91
2018-05-09T15:56:31.452Z,1011.90
2018-05-09T15:57:58.960Z,1011.90
2018-05-09T15:59:26.348Z,1011.91
2018-05-09T16:00:54.029Z,1011.95
2018-05-09T16:02:21.648Z,1011.93
2018-05-09T16:03:49.009Z,1011.92
2018-05-09T16:05:16.166Z,1011.92
2018-05-09T16:06:43.629Z,1011.91
2018-05-09T16:08:11.139Z,1011.93
2018-05-09T16:09:38.622Z,1011.93
2018-05-09T16:11:06.102Z,1011.92
2018-05-09T16:12:33.416Z,1011.91
2018-05-09T16:14:00.914Z,1011.94
2018-05-09T16:15:28.128Z,1011.92
2018-05-09T16:16:55.779Z,1011.95
2018-05-09T16:18:23.382Z,1011.93
2018-05-09T16:19:51.053Z,1011.96
2018-05-09T16:21:18.480Z,1011.96
2018-05-09T16:22:45.939Z,1011.96
2018-05-09T16:24:13.552Z,1011.96
2018-05-09T16:25:40.431Z,1011.96
2018-05-09T16:27:08.143Z,1011.97
2018-05-09T16:28:35.723Z,1011.95
2018-05-09T16:30:03.096Z,1011.96
2018-05-09T16:31:30.456Z,1011.94
2018-05-09T16:32:58.020Z,1011.93
2018-05-09T16:34:25.731Z,1011.94
2018-05-09T16:35:52.988Z,1011.96
2018-05-09T16:37:19.922Z,1011.98
2018-05-09T16:38:47.453Z,1011.98
2018-05-09T16:40:14.922Z,1011.99
2018-05-09T16:41:42.477Z,1011.99
2018-05-09T16:43:09.815Z,1011.98
2018-05-09T16:44:37.470Z,1011.99
2018-05-09T16:46:04.979Z,1011.97
2018-05-09T16:47:32.404Z,1011.97
2018-05-09T16:49:01.041Z,1011.98
2018-05-09T16:50:27.474Z,1012.00
2018-05-09T16:51:55.125Z,1011.99
2018-05-09T16:53:22.579Z,1012.00
2018-05-09T16:54:50.173Z,1012.03
2018-05-09T16:56:17.789Z,1012.05
2018-05-09T16:57:45.060Z,1012.03
2018-05-09T16:59:12.770Z,1012.01
2018-05-09T17:00:40.202Z,1012.01
2018-05-09T17:02:07.617Z,1012.00
2018-05-09T17:03:35.330Z,1012.02
2018-05-09T17:05:02.736Z,1011.98
2018-05-09T17:06:30.311Z,1011.96
2018-05-09T17:07:57.677Z,1011.95
2018-05-09T17:09:25.282Z,1011.96
2018-05-09T17:10:52.888Z,1011.95
2018-05-09T17:12:19.998Z,1011.96
2018-05-09T17:13:47.569Z,1011.97
2018-05-09T17:15:14.975Z,1011.98
2018-05-09T17:16:42.494Z,1011.98
2018-05-09T17:18:09.986Z,1011.97
2018-05-09T17:19:37.331Z,1011.98
2018-05-09T17:21:04.396Z,1011.97
2018-05-09T17:22:31.797Z,1011.96
2018-05-09T17:24:02.296Z,1011.97
2018-05-09T17:25:26.396Z,1011.96
2018-05-09T17:26:53.887Z,1011.95
2018-05-09T17:28:21.475Z,1011.97
2018-05-09T17:29:48.588Z,1011.97
2018-05-09T17:31:16.064Z,1012.00
2018-05-09T17:32:43.580Z,1011.99
2018-05-09T17:34:10.707Z,1011.97
2018-05-09T17:35:37.980Z,1011.97
2018-05-09T17:37:05.816Z,1011.98